sensor_id;sensor_type;location;lat;lon;timestamp;P1;durP1;ratioP1;P2;durP2;ratioP2
13368;SDS011;6753;52.520;13.450;2023-03-03T00:00:11;1040.47;;;899.63;;
13368;SDS011;6753;52.520;13.450;2023-03-03T00:00:22;1054.10;;;906.53;;
13368;SDS011;6753;52.520;13.450;2023-03-03T00:00:33;1048.05;;;904.55;;
13368;SDS011;6753;52.520;13.450;2023-03-03T00:00:44;1042.77;;;902.20;;
13368;SDS011;6753;52.520;13.450;2023-03-03T00:00:56;1034.97;;;897.88;;
13368;SDS011;6753;52.520;13.450;2023-03-03T00:01:07;1025.80;;;893.28;;
13368;SDS011;6753;52.520;13.450;2023-03-03T00:01:18;1021.78;;;891.55;;
13368;SDS011;6753;52.520;13.450;2023-03-03T00:01:29;1019.33;;;890.38;;
13368;SDS011;6753;52.520;13.450;2023-03-03T00:01:41;1027.03;;;892.45;;
13368;SDS011;6753;52.520;13.450;2023-03-03T00:01:52;1038.22;;;899.65;;
13368;SDS011;6753;52.520;13.450;2023-03-03T00:02:03;1042.73;;;902.20;;
13368;SDS011;6753;52.520;13.450;2023-03-03T00:02:14;1045.63;;;903.25;;
13368;SDS011;6753;52.520;13.450;2023-03-03T00:02:25;1048.80;;;903.67;;
13368;SDS011;6753;52.520;13.450;2023-03-03T00:02:35;1050.32;;;906.50;;
13368;SDS011;6753;52.520;13.450;2023-03-03T00:02:47;1048.13;;;906.00;;
13368;SDS011;6753;52.520;13.450;2023-03-03T00:02:58;1044.90;;;903.50;;
13368;SDS011;6753;52.520;13.450;2023-03-03T00:03:14;1051.75;;;906.35;;
13368;SDS011;6753;52.520;13.450;2023-03-03T00:03:27;1048.30;;;904.75;;
13368;SDS011;6753;52.520;13.450;2023-03-03T00:03:38;1045.60;;;902.28;;
13368;SDS011;6753;52.520;13.450;2023-03-03T00:03:49;1041.60;;;900.47;;
13368;SDS011;6753;52.520;13.450;2023-03-03T00:04:01;1041.90;;;902.08;;
13368;SDS011;6753;52.520;13.450;2023-03-03T00:04:12;1038.97;;;900.90;;
13368;SDS011;6753;52.520;13.450;2023-03-03T00:04:22;1032.63;;;898.97;;
13368;SDS011;6753;52.520;13.450;2023-03-03T00:04:33;1037.25;;;901.20;;
13368;SDS011;6753;52.520;13.450;2023-03-03T00:04:44;1037.70;;;902.17;;
13368;SDS011;6753;52.520;13.450;2023-03-03T00:04:55;1036.60;;;904.03;;
13368;SDS011;6753;52.520;13.450;2023-03-03T00:05:05;1036.37;;;903.67;;
13368;SDS011;6753;52.520;13.450;2023-03-03T00:05:17;1039.13;;;904.60;;
13368;SDS011;6753;52.520;13.450;2023-03-03T00:05:27;1043.47;;;905.77;;
13368;SDS011;6753;52.520;13.450;2023-03-03T00:05:41;1048.50;;;908.17;;
13368;SDS011;6753;52.520;13.450;2023-03-03T00:05:52;1053.50;;;908.50;;
13368;SDS011;6753;52.520;13.450;2023-03-03T00:06:04;1060.35;;;911.65;;
13368;SDS011;6753;52.520;13.450;2023-03-03T00:06:17;1069.85;;;915.05;;
13368;SDS011;6753;52.520;13.450;2023-03-03T00:06:29;1067.15;;;914.85;;
13368;SDS011;6753;52.520;13.450;2023-03-03T00:06:40;1063.57;;;913.80;;
13368;SDS011;6753;52.520;13.450;2023-03-03T00:06:50;1062.15;;;913.58;;
13368;SDS011;6753;52.520;13.450;2023-03-03T00:07:02;1059.68;;;910.92;;
13368;SDS011;6753;52.520;13.450;2023-03-03T00:07:14;1056.55;;;909.70;;
13368;SDS011;6753;52.520;13.450;2023-03-03T00:07:30;1054.97;;;907.58;;
13368;SDS011;6753;52.520;13.450;2023-03-03T00:07:42;1054.88;;;906.38;;
13368;SDS011;6753;52.520;13.450;2023-03-03T00:07:53;1053.82;;;906.22;;
13368;SDS011;6753;52.520;13.450;2023-03-03T00:08:04;1051.03;;;904.53;;
13368;SDS011;6753;52.520;13.450;2023-03-03T00:08:15;1047.80;;;903.63;;
13368;SDS011;6753;52.520;13.450;2023-03-03T00:08:26;1046.38;;;903.15;;
13368;SDS011;6753;52.520;13.450;2023-03-03T00:08:38;1048.28;;;903.38;;
13368;SDS011;6753;52.520;13.450;2023-03-03T00:08:49;1052.30;;;905.45;;
13368;SDS011;6753;52.520;13.450;2023-03-03T00:09:00;1050.65;;;904.13;;
13368;SDS011;6753;52.520;13.450;2023-03-03T00:09:10;1048.70;;;903.53;;
13368;SDS011;6753;52.520;13.450;2023-03-03T00:09:21;1047.68;;;903.55;;
13368;SDS011;6753;52.520;13.450;2023-03-03T00:09:32;1045.53;;;904.50;;
13368;SDS011;6753;52.520;13.450;2023-03-03T00:09:42;1043.07;;;904.30;;
13368;SDS011;6753;52.520;13.450;2023-03-03T00:09:53;1041.53;;;903.08;;
13368;SDS011;6753;52.520;13.450;2023-03-03T00:10:04;1042.33;;;903.43;;
13368;SDS011;6753;52.520;13.450;2023-03-03T00:10:17;1042.90;;;903.75;;
13368;SDS011;6753;52.520;13.450;2023-03-03T00:10:28;1041.85;;;902.45;;
13368;SDS011;6753;52.520;13.450;2023-03-03T00:10:39;1037.28;;;899.35;;
13368;SDS011;6753;52.520;13.450;2023-03-03T00:10:50;1034.47;;;898.28;;
13368;SDS011;6753;52.520;13.450;2023-03-03T00:11:02;1030.97;;;898.40;;
13368;SDS011;6753;52.520;13.450;2023-03-03T00:11:15;1030.10;;;898.00;;
13368;SDS011;6753;52.520;13.450;2023-03-03T00:11:26;1030.68;;;898.85;;
13368;SDS011;6753;52.520;13.450;2023-03-03T00:11:36;1031.15;;;900.22;;
13368;SDS011;6753;52.520;13.450;2023-03-03T00:11:49;1034.10;;;900.47;;
13368;SDS011;6753;52.520;13.450;2023-03-03T00:12:10;1034.13;;;899.90;;
13368;SDS011;6753;52.520;13.450;2023-03-03T00:12:32;1036.85;;;900.53;;
13368;SDS011;6753;52.520;13.450;2023-03-03T00:12:45;1035.07;;;899.72;;
13368;SDS011;6753;52.520;13.450;2023-03-03T00:12:57;1033.05;;;901.22;;
13368;SDS011;6753;52.520;13.450;2023-03-03T00:13:12;1035.78;;;902.03;;
13368;SDS011;6753;52.520;13.450;2023-03-03T00:13:25;1033.80;;;901.47;;
13368;SDS011;6753;52.520;13.450;2023-03-03T00:13:40;1031.88;;;900.50;;
13368;SDS011;6753;52.520;13.450;2023-03-03T00:13:54;1035.20;;;900.60;;
13368;SDS011;6753;52.520;13.450;2023-03-03T00:14:09;1035.13;;;898.95;;
13368;SDS011;6753;52.520;13.450;2023-03-03T00:14:28;1036.13;;;897.95;;
13368;SDS011;6753;52.520;13.450;2023-03-03T00:14:41;1035.90;;;896.63;;
13368;SDS011;6753;52.520;13.450;2023-03-03T00:14:52;1033.90;;;894.97;;
13368;SDS011;6753;52.520;13.450;2023-03-03T00:15:11;1033.65;;;894.08;;
13368;SDS011;6753;52.520;13.450;2023-03-03T00:15:24;1031.10;;;894.92;;
13368;SDS011;6753;52.520;13.450;2023-03-03T00:15:35;1032.10;;;897.20;;
13368;SDS011;6753;52.520;13.450;2023-03-03T00:15:46;1032.75;;;898.25;;
13368;SDS011;6753;52.520;13.450;2023-03-03T00:16:04;1032.28;;;899.72;;
13368;SDS011;6753;52.520;13.450;2023-03-03T00:16:23;1034.88;;;901.05;;
13368;SDS011;6753;52.520;13.450;2023-03-03T00:16:37;1035.72;;;899.88;;
13368;SDS011;6753;52.520;13.450;2023-03-03T00:16:49;1031.88;;;899.50;;
13368;SDS011;6753;52.520;13.450;2023-03-03T00:17:00;1031.65;;;897.85;;
13368;SDS011;6753;52.520;13.450;2023-03-03T00:17:24;1027.40;;;894.97;;
13368;SDS011;6753;52.520;13.450;2023-03-03T00:17:36;1023.42;;;893.65;;
13368;SDS011;6753;52.520;13.450;2023-03-03T00:17:47;1022.45;;;891.88;;
13368;SDS011;6753;52.520;13.450;2023-03-03T00:17:58;1024.50;;;891.90;;
13368;SDS011;6753;52.520;13.450;2023-03-03T00:18:16;1025.53;;;892.97;;
13368;SDS011;6753;52.520;13.450;2023-03-03T00:18:34;1029.05;;;893.03;;
13368;SDS011;6753;52.520;13.450;2023-03-03T00:18:46;1028.22;;;892.53;;
13368;SDS011;6753;52.520;13.450;2023-03-03T00:18:57;1025.20;;;891.78;;
13368;SDS011;6753;52.520;13.450;2023-03-03T00:19:11;1024.32;;;891.03;;
13368;SDS011;6753;52.520;13.450;2023-03-03T00:19:26;1021.00;;;888.10;;
13368;SDS011;6753;52.520;13.450;2023-03-03T00:19:39;1018.88;;;886.83;;
13368;SDS011;6753;52.520;13.450;2023-03-03T00:19:51;1017.92;;;885.20;;
13368;SDS011;6753;52.520;13.450;2023-03-03T00:20:07;1017.83;;;885.17;;
13368;SDS011;6753;52.520;13.450;2023-03-03T00:20:40;1013.80;;;886.20;;
13368;SDS011;6753;52.520;13.450;2023-03-03T00:20:52;1014.27;;;886.27;;
13368;SDS011;6753;52.520;13.450;2023-03-03T00:21:09;1009.33;;;884.25;;
13368;SDS011;6753;52.520;13.450;2023-03-03T00:21:32;1010.42;;;882.70;;
13368;SDS011;6753;52.520;13.450;2023-03-03T00:21:50;1008.10;;;882.05;;
13368;SDS011;6753;52.520;13.450;2023-03-03T00:22:01;1007.97;;;881.67;;
13368;SDS011;6753;52.520;13.450;2023-03-03T00:22:25;1004.25;;;880.10;;
13368;SDS011;6753;52.520;13.450;2023-03-03T00:22:39;1003.80;;;880.42;;
13368;SDS011;6753;52.520;13.450;2023-03-03T00:22:51;1003.83;;;880.25;;
13368;SDS011;6753;52.520;13.450;2023-03-03T00:23:18;1007.85;;;881.45;;
13368;SDS011;6753;52.520;13.450;2023-03-03T00:23:34;1017.22;;;885.72;;
13368;SDS011;6753;52.520;13.450;2023-03-03T00:23:46;1018.38;;;886.58;;
13368;SDS011;6753;52.520;13.450;2023-03-03T00:24:00;1017.33;;;886.55;;
13368;SDS011;6753;52.520;13.450;2023-03-03T00:24:29;1012.55;;;883.00;;
13368;SDS011;6753;52.520;13.450;2023-03-03T00:24:46;1008.67;;;882.55;;
13368;SDS011;6753;52.520;13.450;2023-03-03T00:24:58;1010.72;;;882.17;;
13368;SDS011;6753;52.520;13.450;2023-03-03T00:25:20;1010.83;;;883.30;;
13368;SDS011;6753;52.520;13.450;2023-03-03T00:25:37;1014.75;;;885.97;;
13368;SDS011;6753;52.520;13.450;2023-03-03T00:25:52;1012.90;;;884.55;;
13368;SDS011;6753;52.520;13.450;2023-03-03T00:26:06;1014.10;;;884.67;;
13368;SDS011;6753;52.520;13.450;2023-03-03T00:26:29;1015.05;;;883.28;;
13368;SDS011;6753;52.520;13.450;2023-03-03T00:26:44;1017.05;;;880.45;;
13368;SDS011;6753;52.520;13.450;2023-03-03T00:26:56;1016.05;;;879.35;;
13368;SDS011;6753;52.520;13.450;2023-03-03T00:27:15;1013.47;;;879.65;;
13368;SDS011;6753;52.520;13.450;2023-03-03T00:27:34;1011.47;;;878.67;;
13368;SDS011;6753;52.520;13.450;2023-03-03T00:27:45;1011.00;;;880.10;;
13368;SDS011;6753;52.520;13.450;2023-03-03T00:27:55;1014.27;;;882.10;;
13368;SDS011;6753;52.520;13.450;2023-03-03T00:28:19;1014.92;;;881.38;;
13368;SDS011;6753;52.520;13.450;2023-03-03T00:28:40;1014.85;;;882.55;;
13368;SDS011;6753;52.520;13.450;2023-03-03T00:28:56;1012.17;;;881.38;;
13368;SDS011;6753;52.520;13.450;2023-03-03T00:29:22;1011.47;;;880.47;;
13368;SDS011;6753;52.520;13.450;2023-03-03T00:29:43;1013.67;;;878.42;;
13368;SDS011;6753;52.520;13.450;2023-03-03T00:29:57;1017.63;;;878.13;;
13368;SDS011;6753;52.520;13.450;2023-03-03T00:30:16;1016.88;;;879.03;;
13368;SDS011;6753;52.520;13.450;2023-03-03T00:30:30;1016.85;;;880.35;;
13368;SDS011;6753;52.520;13.450;2023-03-03T00:30:41;1015.63;;;879.47;;
13368;SDS011;6753;52.520;13.450;2023-03-03T00:30:52;1010.60;;;878.70;;
13368;SDS011;6753;52.520;13.450;2023-03-03T00:31:05;1011.13;;;875.58;;
13368;SDS011;6753;52.520;13.450;2023-03-03T00:31:25;1008.83;;;872.83;;
13368;SDS011;6753;52.520;13.450;2023-03-03T00:31:40;1007.75;;;873.28;;
13368;SDS011;6753;52.520;13.450;2023-03-03T00:31:52;1007.40;;;872.85;;
13368;SDS011;6753;52.520;13.450;2023-03-03T00:32:15;1003.10;;;872.50;;
13368;SDS011;6753;52.520;13.450;2023-03-03T00:32:35;993.90;;;870.92;;
13368;SDS011;6753;52.520;13.450;2023-03-03T00:32:50;990.88;;;869.92;;
13368;SDS011;6753;52.520;13.450;2023-03-03T00:33:02;991.15;;;870.28;;
13368;SDS011;6753;52.520;13.450;2023-03-03T00:33:30;990.50;;;867.90;;
13368;SDS011;6753;52.520;13.450;2023-03-03T00:33:44;987.75;;;866.50;;
13368;SDS011;6753;52.520;13.450;2023-03-03T00:33:58;985.58;;;865.42;;
13368;SDS011;6753;52.520;13.450;2023-03-03T00:34:26;985.47;;;864.95;;
13368;SDS011;6753;52.520;13.450;2023-03-03T00:34:37;984.92;;;864.72;;
13368;SDS011;6753;52.520;13.450;2023-03-03T00:34:48;984.67;;;865.70;;
13368;SDS011;6753;52.520;13.450;2023-03-03T00:35:17;983.78;;;865.88;;
13368;SDS011;6753;52.520;13.450;2023-03-03T00:35:34;983.05;;;866.05;;
13368;SDS011;6753;52.520;13.450;2023-03-03T00:35:47;981.55;;;863.03;;
13368;SDS011;6753;52.520;13.450;2023-03-03T00:35:58;980.05;;;861.38;;
13368;SDS011;6753;52.520;13.450;2023-03-03T00:36:34;979.75;;;861.03;;
13368;SDS011;6753;52.520;13.450;2023-03-03T00:36:46;978.25;;;860.22;;
13368;SDS011;6753;52.520;13.450;2023-03-03T00:37:00;977.53;;;861.15;;
13368;SDS011;6753;52.520;13.450;2023-03-03T00:37:39;970.13;;;856.90;;
13368;SDS011;6753;52.520;13.450;2023-03-03T00:37:53;973.03;;;856.92;;
13368;SDS011;6753;52.520;13.450;2023-03-03T00:38:09;975.28;;;858.00;;
13368;SDS011;6753;52.520;13.450;2023-03-03T00:38:23;977.25;;;860.65;;
13368;SDS011;6753;52.520;13.450;2023-03-03T00:38:34;976.95;;;861.38;;
13368;SDS011;6753;52.520;13.450;2023-03-03T00:38:46;978.05;;;861.28;;
13368;SDS011;6753;52.520;13.450;2023-03-03T00:38:59;977.83;;;860.40;;
13368;SDS011;6753;52.520;13.450;2023-03-03T00:39:28;972.45;;;855.78;;
13368;SDS011;6753;52.520;13.450;2023-03-03T00:39:42;966.95;;;850.40;;
13368;SDS011;6753;52.520;13.450;2023-03-03T00:39:58;963.10;;;849.65;;
13368;SDS011;6753;52.520;13.450;2023-03-03T00:40:20;963.08;;;849.05;;
13368;SDS011;6753;52.520;13.450;2023-03-03T00:40:34;964.67;;;851.10;;
13368;SDS011;6753;52.520;13.450;2023-03-03T00:40:46;967.75;;;852.35;;
13368;SDS011;6753;52.520;13.450;2023-03-03T00:40:57;967.47;;;852.50;;
13368;SDS011;6753;52.520;13.450;2023-03-03T00:41:13;966.40;;;852.13;;
13368;SDS011;6753;52.520;13.450;2023-03-03T00:41:29;964.38;;;850.35;;
13368;SDS011;6753;52.520;13.450;2023-03-03T00:41:39;963.63;;;851.15;;
13368;SDS011;6753;52.520;13.450;2023-03-03T00:41:50;959.20;;;850.60;;
13368;SDS011;6753;52.520;13.450;2023-03-03T00:42:01;955.13;;;849.10;;
13368;SDS011;6753;52.520;13.450;2023-03-03T00:42:19;955.25;;;847.28;;
13368;SDS011;6753;52.520;13.450;2023-03-03T00:42:30;952.80;;;845.07;;
13368;SDS011;6753;52.520;13.450;2023-03-03T00:42:44;951.35;;;843.45;;
13368;SDS011;6753;52.520;13.450;2023-03-03T00:42:58;954.45;;;842.70;;
13368;SDS011;6753;52.520;13.450;2023-03-03T00:43:12;954.28;;;842.58;;
13368;SDS011;6753;52.520;13.450;2023-03-03T00:43:32;953.75;;;842.83;;
13368;SDS011;6753;52.520;13.450;2023-03-03T00:43:45;954.08;;;842.58;;
13368;SDS011;6753;52.520;13.450;2023-03-03T00:43:56;953.13;;;843.00;;
13368;SDS011;6753;52.520;13.450;2023-03-03T00:44:54;952.63;;;842.40;;
13368;SDS011;6753;52.520;13.450;2023-03-03T00:45:15;951.83;;;841.13;;
13368;SDS011;6753;52.520;13.450;2023-03-03T00:45:39;941.70;;;836.90;;
13368;SDS011;6753;52.520;13.450;2023-03-03T00:45:53;940.30;;;835.97;;
13368;SDS011;6753;52.520;13.450;2023-03-03T00:46:07;940.17;;;835.70;;
13368;SDS011;6753;52.520;13.450;2023-03-03T00:46:19;943.45;;;836.33;;
13368;SDS011;6753;52.520;13.450;2023-03-03T00:46:32;946.17;;;837.25;;
13368;SDS011;6753;52.520;13.450;2023-03-03T00:46:46;950.10;;;838.28;;
13368;SDS011;6753;52.520;13.450;2023-03-03T00:46:57;949.47;;;838.33;;
13368;SDS011;6753;52.520;13.450;2023-03-03T00:47:24;950.50;;;839.40;;
13368;SDS011;6753;52.520;13.450;2023-03-03T00:47:36;946.70;;;839.28;;
13368;SDS011;6753;52.520;13.450;2023-03-03T00:47:48;944.55;;;839.33;;
13368;SDS011;6753;52.520;13.450;2023-03-03T00:48:01;943.40;;;838.78;;
13368;SDS011;6753;52.520;13.450;2023-03-03T00:48:26;943.60;;;839.30;;
13368;SDS011;6753;52.520;13.450;2023-03-03T00:48:41;941.30;;;836.95;;
13368;SDS011;6753;52.520;13.450;2023-03-03T00:48:54;941.88;;;835.63;;
13368;SDS011;6753;52.520;13.450;2023-03-03T00:49:07;942.53;;;836.00;;
13368;SDS011;6753;52.520;13.450;2023-03-03T00:49:31;938.30;;;831.80;;
13368;SDS011;6753;52.520;13.450;2023-03-03T00:49:42;936.25;;;831.97;;
13368;SDS011;6753;52.520;13.450;2023-03-03T00:49:53;935.77;;;831.87;;
13368;SDS011;6753;52.520;13.450;2023-03-03T00:50:41;932.50;;;826.50;;
13368;SDS011;6753;52.520;13.450;2023-03-03T00:50:53;929.72;;;825.00;;
13368;SDS011;6753;52.520;13.450;2023-03-03T00:51:08;926.30;;;823.47;;
13368;SDS011;6753;52.520;13.450;2023-03-03T00:51:31;925.75;;;823.45;;
13368;SDS011;6753;52.520;13.450;2023-03-03T00:51:43;928.25;;;825.80;;
13368;SDS011;6753;52.520;13.450;2023-03-03T00:51:54;928.53;;;826.13;;
13368;SDS011;6753;52.520;13.450;2023-03-03T00:52:08;928.57;;;825.97;;
13368;SDS011;6753;52.520;13.450;2023-03-03T00:52:22;928.97;;;826.15;;
13368;SDS011;6753;52.520;13.450;2023-03-03T00:52:38;930.03;;;827.28;;
13368;SDS011;6753;52.520;13.450;2023-03-03T00:52:53;927.05;;;824.53;;
13368;SDS011;6753;52.520;13.450;2023-03-03T00:53:13;924.70;;;822.42;;
13368;SDS011;6753;52.520;13.450;2023-03-03T00:53:26;923.08;;;821.05;;
13368;SDS011;6753;52.520;13.450;2023-03-03T00:53:38;918.75;;;817.20;;
13368;SDS011;6753;52.520;13.450;2023-03-03T00:53:49;918.63;;;817.30;;
13368;SDS011;6753;52.520;13.450;2023-03-03T00:54:00;918.77;;;817.50;;
13368;SDS011;6753;52.520;13.450;2023-03-03T00:54:12;920.72;;;819.50;;
13368;SDS011;6753;52.520;13.450;2023-03-03T00:54:22;920.92;;;819.80;;
13368;SDS011;6753;52.520;13.450;2023-03-03T00:54:33;920.80;;;819.60;;
13368;SDS011;6753;52.520;13.450;2023-03-03T00:54:44;921.10;;;819.70;;
13368;SDS011;6753;52.520;13.450;2023-03-03T00:54:58;920.78;;;819.55;;
13368;SDS011;6753;52.520;13.450;2023-03-03T00:55:09;918.10;;;817.15;;
13368;SDS011;6753;52.520;13.450;2023-03-03T00:55:20;917.55;;;816.67;;
13368;SDS011;6753;52.520;13.450;2023-03-03T00:55:32;916.73;;;815.93;;
13368;SDS011;6753;52.520;13.450;2023-03-03T00:55:43;917.55;;;816.85;;
13368;SDS011;6753;52.520;13.450;2023-03-03T00:55:57;917.95;;;817.13;;
13368;SDS011;6753;52.520;13.450;2023-03-03T00:56:07;917.78;;;816.83;;
13368;SDS011;6753;52.520;13.450;2023-03-03T00:56:18;917.90;;;816.88;;
13368;SDS011;6753;52.520;13.450;2023-03-03T00:56:29;918.60;;;817.50;;
13368;SDS011;6753;52.520;13.450;2023-03-03T00:56:40;918.45;;;817.22;;
13368;SDS011;6753;52.520;13.450;2023-03-03T00:56:51;918.23;;;816.83;;
13368;SDS011;6753;52.520;13.450;2023-03-03T00:57:02;917.58;;;816.38;;
13368;SDS011;6753;52.520;13.450;2023-03-03T00:57:12;916.25;;;815.35;;
13368;SDS011;6753;52.520;13.450;2023-03-03T00:57:23;915.47;;;814.63;;
13368;SDS011;6753;52.520;13.450;2023-03-03T00:57:34;914.78;;;814.05;;
13368;SDS011;6753;52.520;13.450;2023-03-03T00:57:45;914.15;;;813.60;;
13368;SDS011;6753;52.520;13.450;2023-03-03T00:57:56;914.75;;;814.30;;
13368;SDS011;6753;52.520;13.450;2023-03-03T00:58:07;915.08;;;814.47;;
13368;SDS011;6753;52.520;13.450;2023-03-03T00:58:19;915.28;;;814.75;;
13368;SDS011;6753;52.520;13.450;2023-03-03T00:58:30;915.60;;;814.90;;
13368;SDS011;6753;52.520;13.450;2023-03-03T00:58:41;915.40;;;814.73;;
13368;SDS011;6753;52.520;13.450;2023-03-03T00:58:53;914.00;;;813.60;;
13368;SDS011;6753;52.520;13.450;2023-03-03T00:59:04;914.22;;;813.72;;
13368;SDS011;6753;52.520;13.450;2023-03-03T00:59:16;913.70;;;813.13;;
13368;SDS011;6753;52.520;13.450;2023-03-03T00:59:27;912.45;;;812.38;;
13368;SDS011;6753;52.520;13.450;2023-03-03T00:59:38;911.15;;;811.05;;
13368;SDS011;6753;52.520;13.450;2023-03-03T00:59:48;911.37;;;811.07;;
13368;SDS011;6753;52.520;13.450;2023-03-03T00:59:59;912.67;;;812.38;;
13368;SDS011;6753;52.520;13.450;2023-03-03T01:00:11;912.45;;;812.25;;
13368;SDS011;6753;52.520;13.450;2023-03-03T01:00:22;913.97;;;813.55;;
13368;SDS011;6753;52.520;13.450;2023-03-03T01:00:33;913.67;;;813.30;;
13368;SDS011;6753;52.520;13.450;2023-03-03T01:00:45;913.58;;;813.42;;
13368;SDS011;6753;52.520;13.450;2023-03-03T01:00:57;912.10;;;811.72;;
13368;SDS011;6753;52.520;13.450;2023-03-03T01:01:08;911.83;;;811.33;;
13368;SDS011;6753;52.520;13.450;2023-03-03T01:01:19;913.10;;;812.53;;
13368;SDS011;6753;52.520;13.450;2023-03-03T01:01:30;914.07;;;813.33;;
13368;SDS011;6753;52.520;13.450;2023-03-03T01:01:40;912.78;;;812.08;;
13368;SDS011;6753;52.520;13.450;2023-03-03T01:01:51;911.80;;;811.38;;
13368;SDS011;6753;52.520;13.450;2023-03-03T01:02:03;912.38;;;812.08;;
13368;SDS011;6753;52.520;13.450;2023-03-03T01:02:14;912.30;;;812.23;;
13368;SDS011;6753;52.520;13.450;2023-03-03T01:02:25;909.65;;;809.75;;
13368;SDS011;6753;52.520;13.450;2023-03-03T01:02:36;910.03;;;810.03;;
13368;SDS011;6753;52.520;13.450;2023-03-03T01:02:47;912.25;;;811.95;;
13368;SDS011;6753;52.520;13.450;2023-03-03T01:02:58;912.33;;;811.77;;
13368;SDS011;6753;52.520;13.450;2023-03-03T01:03:11;912.08;;;811.33;;
13368;SDS011;6753;52.520;13.450;2023-03-03T01:03:24;912.28;;;811.40;;
13368;SDS011;6753;52.520;13.450;2023-03-03T01:03:37;913.45;;;812.65;;
13368;SDS011;6753;52.520;13.450;2023-03-03T01:03:47;912.00;;;811.30;;
13368;SDS011;6753;52.520;13.450;2023-03-03T01:04:00;911.78;;;811.05;;
13368;SDS011;6753;52.520;13.450;2023-03-03T01:04:10;911.10;;;810.55;;
13368;SDS011;6753;52.520;13.450;2023-03-03T01:04:21;911.80;;;811.30;;
13368;SDS011;6753;52.520;13.450;2023-03-03T01:04:32;913.17;;;812.47;;
13368;SDS011;6753;52.520;13.450;2023-03-03T01:04:43;913.22;;;812.65;;
13368;SDS011;6753;52.520;13.450;2023-03-03T01:04:58;915.05;;;814.33;;
13368;SDS011;6753;52.520;13.450;2023-03-03T01:05:09;915.87;;;815.03;;
13368;SDS011;6753;52.520;13.450;2023-03-03T01:05:23;914.65;;;813.90;;
13368;SDS011;6753;52.520;13.450;2023-03-03T01:05:34;914.38;;;813.70;;
13368;SDS011;6753;52.520;13.450;2023-03-03T01:05:45;914.67;;;813.97;;
13368;SDS011;6753;52.520;13.450;2023-03-03T01:05:56;914.85;;;814.25;;
13368;SDS011;6753;52.520;13.450;2023-03-03T01:06:07;913.35;;;812.95;;
13368;SDS011;6753;52.520;13.450;2023-03-03T01:06:19;913.30;;;813.08;;
13368;SDS011;6753;52.520;13.450;2023-03-03T01:06:30;911.95;;;811.67;;
13368;SDS011;6753;52.520;13.450;2023-03-03T01:06:41;912.13;;;811.67;;
13368;SDS011;6753;52.520;13.450;2023-03-03T01:06:55;913.30;;;812.53;;
13368;SDS011;6753;52.520;13.450;2023-03-03T01:07:06;912.65;;;811.95;;
13368;SDS011;6753;52.520;13.450;2023-03-03T01:07:16;913.63;;;812.63;;
13368;SDS011;6753;52.520;13.450;2023-03-03T01:07:28;913.47;;;812.47;;
13368;SDS011;6753;52.520;13.450;2023-03-03T01:07:38;913.00;;;812.40;;
13368;SDS011;6753;52.520;13.450;2023-03-03T01:07:49;911.55;;;811.22;;
13368;SDS011;6753;52.520;13.450;2023-03-03T01:08:00;911.25;;;810.67;;
13368;SDS011;6753;52.520;13.450;2023-03-03T01:08:12;912.03;;;811.53;;
13368;SDS011;6753;52.520;13.450;2023-03-03T01:08:24;913.60;;;812.70;;
13368;SDS011;6753;52.520;13.450;2023-03-03T01:08:35;914.42;;;813.03;;
13368;SDS011;6753;52.520;13.450;2023-03-03T01:08:45;914.23;;;812.83;;
13368;SDS011;6753;52.520;13.450;2023-03-03T01:08:56;915.80;;;814.50;;
13368;SDS011;6753;52.520;13.450;2023-03-03T01:09:07;915.80;;;814.28;;
13368;SDS011;6753;52.520;13.450;2023-03-03T01:09:18;915.77;;;814.13;;
13368;SDS011;6753;52.520;13.450;2023-03-03T01:09:28;915.90;;;814.33;;
13368;SDS011;6753;52.520;13.450;2023-03-03T01:09:39;915.10;;;813.55;;
13368;SDS011;6753;52.520;13.450;2023-03-03T01:09:50;915.05;;;812.83;;
13368;SDS011;6753;52.520;13.450;2023-03-03T01:10:00;916.37;;;813.90;;
13368;SDS011;6753;52.520;13.450;2023-03-03T01:10:12;916.92;;;815.05;;
13368;SDS011;6753;52.520;13.450;2023-03-03T01:10:23;916.70;;;815.00;;
13368;SDS011;6753;52.520;13.450;2023-03-03T01:10:37;916.63;;;813.90;;
13368;SDS011;6753;52.520;13.450;2023-03-03T01:10:51;921.05;;;814.17;;
13368;SDS011;6753;52.520;13.450;2023-03-03T01:11:04;918.97;;;812.22;;
13368;SDS011;6753;52.520;13.450;2023-03-03T01:11:18;919.08;;;811.72;;
13368;SDS011;6753;52.520;13.450;2023-03-03T01:11:33;920.00;;;813.80;;
13368;SDS011;6753;52.520;13.450;2023-03-03T01:11:43;919.65;;;814.17;;
13368;SDS011;6753;52.520;13.450;2023-03-03T01:11:54;917.75;;;815.50;;
13368;SDS011;6753;52.520;13.450;2023-03-03T01:12:05;920.22;;;815.13;;
13368;SDS011;6753;52.520;13.450;2023-03-03T01:12:16;922.30;;;817.47;;
13368;SDS011;6753;52.520;13.450;2023-03-03T01:12:27;921.90;;;817.42;;
13368;SDS011;6753;52.520;13.450;2023-03-03T01:12:37;920.80;;;817.53;;
13368;SDS011;6753;52.520;13.450;2023-03-03T01:12:49;920.20;;;817.85;;
13368;SDS011;6753;52.520;13.450;2023-03-03T01:12:59;920.33;;;817.75;;
13368;SDS011;6753;52.520;13.450;2023-03-03T01:13:11;917.60;;;815.35;;
13368;SDS011;6753;52.520;13.450;2023-03-03T01:13:23;916.83;;;814.60;;
13368;SDS011;6753;52.520;13.450;2023-03-03T01:13:36;917.25;;;812.85;;
13368;SDS011;6753;52.520;13.450;2023-03-03T01:13:48;919.42;;;812.45;;
13368;SDS011;6753;52.520;13.450;2023-03-03T01:14:01;918.25;;;811.75;;
13368;SDS011;6753;52.520;13.450;2023-03-03T01:14:12;921.53;;;812.47;;
13368;SDS011;6753;52.520;13.450;2023-03-03T01:14:23;923.60;;;813.63;;
13368;SDS011;6753;52.520;13.450;2023-03-03T01:14:33;924.33;;;813.75;;
13368;SDS011;6753;52.520;13.450;2023-03-03T01:14:45;924.95;;;814.50;;
13368;SDS011;6753;52.520;13.450;2023-03-03T01:14:58;927.55;;;814.63;;
13368;SDS011;6753;52.520;13.450;2023-03-03T01:15:09;928.33;;;815.53;;
13368;SDS011;6753;52.520;13.450;2023-03-03T01:15:21;930.22;;;816.33;;
13368;SDS011;6753;52.520;13.450;2023-03-03T01:15:32;929.50;;;814.45;;
13368;SDS011;6753;52.520;13.450;2023-03-03T01:15:43;928.47;;;814.42;;
13368;SDS011;6753;52.520;13.450;2023-03-03T01:15:55;928.20;;;814.28;;
13368;SDS011;6753;52.520;13.450;2023-03-03T01:16:06;927.60;;;813.50;;
13368;SDS011;6753;52.520;13.450;2023-03-03T01:16:17;925.05;;;812.58;;
13368;SDS011;6753;52.520;13.450;2023-03-03T01:16:29;925.15;;;813.47;;
13368;SDS011;6753;52.520;13.450;2023-03-03T01:16:40;928.03;;;814.30;;
13368;SDS011;6753;52.520;13.450;2023-03-03T01:16:50;927.85;;;814.00;;
13368;SDS011;6753;52.520;13.450;2023-03-03T01:17:01;926.42;;;814.95;;
13368;SDS011;6753;52.520;13.450;2023-03-03T01:17:12;925.72;;;814.60;;
13368;SDS011;6753;52.520;13.450;2023-03-03T01:17:23;925.42;;;812.78;;